Time;durP1;ratioP1;P1;durP2;ratioP2;P2;SDS_P1;SDS_P2;PMS_P1;PMS_P2;Temp;Humidity;BMP_temperature;BMP_pressure;BME280_temperature;BME280_humidity;BME280_pressure;Samples;Min_cycle;Max_cycle;Signal;HPM_P1;HPM_P2
2023/12/22 00:00:53;;;;;;;10.30;1.90;;;4.90;99.90;;;;;;5222054;28;20222;-55
2023/12/22 00:03:24;;;;;;;4.93;2.20;;;4.90;99.90;;;;;;5224580;28;20289;-51
2023/12/22 00:05:54;;;;;;;4.43;2.33;;;4.80;99.90;;;;;;5219240;28;20814;-53
2023/12/22 00:08:25;;;;;;;8.70;1.70;;;4.70;99.90;;;;;;5225907;28;20560;-52
2023/12/22 00:10:55;;;;;;;6.27;2.43;;;4.70;99.90;;;;;;5226257;28;20187;-52
2023/12/22 00:13:26;;;;;;;5.27;1.90;;;4.70;99.90;;;;;;5223893;28;20310;-49
2023/12/22 00:15:57;;;;;;;11.43;2.20;;;4.70;99.90;;;;;;5225795;28;20192;-52
2023/12/22 00:18:27;;;;;;;7.37;1.97;;;4.50;99.90;;;;;;5228786;28;20189;-52
2023/12/22 00:20:58;;;;;;;12.60;2.13;;;4.50;99.90;;;;;;5227224;28;20200;-53
2023/12/22 00:23:28;;;;;;;11.77;2.13;;;4.50;99.90;;;;;;5222933;28;20631;-51
2023/12/22 00:25:59;;;;;;;6.10;2.20;;;4.60;99.90;;;;;;5228068;28;20267;-52
2023/12/22 00:28:31;;;;;;;7.90;2.33;;;4.50;99.90;;;;;;5227664;28;20584;-52
2023/12/22 00:31:02;;;;;;;7.67;2.43;;;4.50;99.90;;;;;;5225215;28;20192;-52
2023/12/22 00:33:32;;;;;;;12.20;2.37;;;4.50;99.90;;;;;;5225872;28;20447;-50
2023/12/22 00:36:04;;;;;;;20.73;3.10;;;4.60;99.90;;;;;;5227031;28;20211;-51
2023/12/22 00:38:34;;;;;;;14.93;2.90;;;4.60;99.90;;;;;;5227052;28;20197;-51
2023/12/22 00:41:05;;;;;;;6.90;2.50;;;4.70;99.90;;;;;;5210221;28;20480;-53
2023/12/22 00:43:35;;;;;;;9.20;2.47;;;4.80;99.90;;;;;;5225765;28;20276;-51
2023/12/22 00:46:06;;;;;;;16.30;3.40;;;4.90;99.90;;;;;;5210588;28;20192;-51
2023/12/22 00:48:37;;;;;;;10.33;2.37;;;4.90;99.90;;;;;;5226709;28;20196;-50
2023/12/22 00:51:07;;;;;;;19.77;3.57;;;5.00;99.90;;;;;;5237567;28;20267;-53
2023/12/22 00:53:38;;;;;;;15.83;3.10;;;5.00;99.90;;;;;;5223054;28;20197;-52
2023/12/22 00:56:09;;;;;;;7.50;2.60;;;5.10;99.90;;;;;;5225986;28;20713;-52
2023/12/22 00:58:40;;;;;;;12.03;2.53;;;5.00;99.90;;;;;;5226200;28;20176;-51
2023/12/22 01:01:10;;;;;;;13.60;2.43;;;5.00;99.90;;;;;;5226519;28;20585;-52
2023/12/22 01:03:41;;;;;;;14.03;2.53;;;5.00;99.90;;;;;;5224856;28;20422;-53
2023/12/22 01:06:12;;;;;;;13.53;2.30;;;4.90;99.90;;;;;;5223461;28;20660;-50
2023/12/22 01:08:42;;;;;;;24.67;3.10;;;4.90;99.90;;;;;;5226483;28;20173;-52
2023/12/22 01:11:13;;;;;;;8.73;2.87;;;4.80;99.90;;;;;;5226056;28;20228;-51
2023/12/22 01:13:44;;;;;;;7.57;1.90;;;4.70;99.90;;;;;;5225455;28;20273;-52
2023/12/22 01:16:15;;;;;;;8.20;2.40;;;4.70;99.90;;;;;;5209938;28;20524;-52
2023/12/22 01:18:46;;;;;;;16.73;3.50;;;4.70;99.90;;;;;;5225265;28;20469;-51
2023/12/22 01:21:17;;;;;;;10.50;3.00;;;4.70;99.90;;;;;;5224276;28;20976;-54
2023/12/22 01:23:47;;;;;;;8.00;2.10;;;4.70;99.90;;;;;;5224700;28;20269;-52
2023/12/22 01:26:18;;;;;;;13.77;2.97;;;4.80;99.90;;;;;;5224664;28;20440;-52
2023/12/22 01:28:49;;;;;;;6.97;2.10;;;4.80;99.90;;;;;;5230714;28;20269;-54
2023/12/22 01:31:19;;;;;;;14.07;3.80;;;4.70;99.90;;;;;;5226663;28;20212;-51
2023/12/22 01:33:50;;;;;;;7.20;2.40;;;4.80;99.90;;;;;;5225515;28;20204;-51
2023/12/22 01:36:20;;;;;;;8.13;2.90;;;4.70;99.90;;;;;;5226095;28;20195;-51
2023/12/22 01:38:51;;;;;;;13.60;2.60;;;4.80;99.90;;;;;;5226095;28;20281;-52
2023/12/22 01:41:21;;;;;;;9.40;2.30;;;4.80;99.90;;;;;;5224032;28;20574;-52
2023/12/22 01:43:52;;;;;;;11.27;2.17;;;4.80;99.90;;;;;;5225430;28;20185;-52
2023/12/22 01:46:23;;;;;;;12.50;3.10;;;4.80;99.90;;;;;;5226288;28;20231;-52
2023/12/22 01:48:54;;;;;;;11.13;3.37;;;4.80;99.90;;;;;;5225001;28;20200;-52
2023/12/22 01:51:24;;;;;;;7.50;2.40;;;4.80;99.90;;;;;;5220379;28;20211;-51
2023/12/22 01:53:55;;;;;;;9.43;1.90;;;4.70;99.90;;;;;;5223368;28;20816;-52
2023/12/22 01:56:26;;;;;;;8.53;2.20;;;4.70;99.90;;;;;;5225872;28;20186;-51
2023/12/22 01:59:00;;;;;;;13.33;3.30;;;4.70;99.90;;;;;;5223516;28;20181;-52
2023/12/22 02:01:32;;;;;;;11.17;2.50;;;4.70;99.90;;;;;;5226106;28;20489;-50
2023/12/22 02:04:03;;;;;;;13.03;3.13;;;4.70;99.90;;;;;;5225966;28;20425;-52
2023/12/22 02:06:35;;;;;;;15.33;3.20;;;4.70;99.90;;;;;;5223260;28;20885;-52
2023/12/22 02:09:06;;;;;;;16.00;3.07;;;4.60;99.90;;;;;;5224955;28;20473;-52
2023/12/22 02:11:38;;;;;;;7.33;3.40;;;4.60;99.90;;;;;;5224023;28;21073;-51
2023/12/22 02:14:09;;;;;;;13.70;2.00;;;4.60;99.90;;;;;;5229018;28;20580;-52
2023/12/22 02:16:54;;;;;;;9.87;2.80;;;4.60;99.90;;;;;;5225125;28;20432;-54
2023/12/22 02:19:42;;;;;;;12.57;2.80;;;4.60;99.90;;;;;;5225118;28;20279;-51
2023/12/22 02:22:12;;;;;;;18.70;3.70;;;4.50;99.90;;;;;;5222426;28;20460;-52
2023/12/22 02:24:43;;;;;;;7.17;2.20;;;4.60;99.90;;;;;;5222374;28;21010;-53
2023/12/22 02:27:32;;;;;;;6.63;2.30;;;4.50;99.90;;;;;;5226092;28;20203;-51
2023/12/22 02:30:21;;;;;;;12.83;3.40;;;4.40;99.90;;;;;;5221020;28;20182;-52
2023/12/22 02:32:56;;;;;;;12.97;2.83;;;4.40;99.90;;;;;;5226975;28;20986;-52
2023/12/22 02:35:29;;;;;;;11.03;2.63;;;4.30;99.90;;;;;;5225338;28;20439;-52
2023/12/22 02:38:01;;;;;;;12.93;2.80;;;4.30;99.90;;;;;;5224589;28;20431;-53
2023/12/22 02:40:34;;;;;;;9.80;2.77;;;4.30;99.90;;;;;;5224430;28;20558;-50
2023/12/22 02:43:06;;;;;;;20.93;2.80;;;4.30;99.90;;;;;;5225898;28;20440;-52
2023/12/22 02:45:36;;;;;;;6.97;1.97;;;4.40;99.90;;;;;;5225277;28;20518;-51
2023/12/22 02:48:07;;;;;;;10.07;2.50;;;4.50;99.90;;;;;;5224635;28;21173;-52
2023/12/22 02:50:37;;;;;;;8.20;2.77;;;4.50;99.90;;;;;;5223447;28;20212;-52
2023/12/22 02:53:08;;;;;;;9.13;2.57;;;4.40;99.90;;;;;;5228709;28;20579;-49
2023/12/22 02:55:39;;;;;;;5.23;2.40;;;4.30;99.90;;;;;;5225379;28;20196;-53
2023/12/22 02:58:09;;;;;;;8.00;2.23;;;4.30;99.90;;;;;;5220887;28;20188;-52
2023/12/22 03:00:40;;;;;;;7.97;2.80;;;4.20;99.90;;;;;;5224504;28;20691;-51
2023/12/22 03:03:11;;;;;;;9.40;2.50;;;4.20;99.90;;;;;;5222222;28;20197;-52
2023/12/22 03:05:41;;;;;;;12.53;2.03;;;4.30;99.90;;;;;;5224503;28;20431;-53
2023/12/22 03:08:12;;;;;;;13.83;2.57;;;4.40;99.90;;;;;;5222259;28;20271;-51
2023/12/22 03:10:43;;;;;;;6.00;1.50;;;4.40;99.90;;;;;;5221606;28;20188;-51
2023/12/22 03:13:13;;;;;;;11.03;1.83;;;4.30;99.90;;;;;;5221704;28;20217;-53
2023/12/22 03:15:44;;;;;;;3.77;1.73;;;4.30;99.90;;;;;;5222488;28;20194;-52
2023/12/22 03:18:14;;;;;;;7.90;2.00;;;4.30;99.90;;;;;;5222338;28;20279;-53
2023/12/22 03:20:45;;;;;;;8.17;1.60;;;4.20;99.90;;;;;;5221718;28;20209;-52
2023/12/22 03:23:16;;;;;;;3.77;1.60;;;4.00;99.90;;;;;;5222765;28;20394;-53
2023/12/22 03:25:46;;;;;;;4.53;2.03;;;3.90;99.90;;;;;;5223153;28;20187;-53
2023/12/22 03:28:17;;;;;;;4.83;1.63;;;4.00;99.90;;;;;;5222529;28;20535;-51
2023/12/22 03:30:47;;;;;;;4.33;1.57;;;3.80;99.90;;;;;;5224428;28;20183;-54
2023/12/22 03:33:18;;;;;;;10.07;2.20;;;3.80;99.90;;;;;;5221225;28;20202;-50
2023/12/22 03:35:48;;;;;;;8.33;2.00;;;3.80;99.90;;;;;;5222967;28;20188;-51
2023/12/22 03:38:19;;;;;;;2.83;1.67;;;3.90;99.90;;;;;;5223423;28;20590;-53
2023/12/22 03:40:50;;;;;;;16.10;2.23;;;3.90;99.90;;;;;;5208343;28;20208;-55
2023/12/22 03:43:20;;;;;;;4.83;2.30;;;4.00;99.90;;;;;;5225414;28;20205;-52
2023/12/22 03:45:51;;;;;;;4.83;1.70;;;3.90;99.90;;;;;;5227807;28;20178;-53
2023/12/22 03:48:22;;;;;;;4.87;1.83;;;3.80;99.90;;;;;;5225686;28;20177;-52
2023/12/22 03:50:52;;;;;;;3.50;1.97;;;3.90;99.90;;;;;;5226399;28;20675;-52
2023/12/22 03:53:23;;;;;;;3.20;1.50;;;3.90;99.90;;;;;;5225744;28;20210;-52
2023/12/22 03:55:53;;;;;;;3.90;1.37;;;3.90;99.90;;;;;;5227828;28;20184;-54
2023/12/22 03:58:26;;;;;;;12.40;2.00;;;3.90;99.90;;;;;;5226918;28;20184;-52
2023/12/22 04:00:56;;;;;;;7.20;2.27;;;3.90;99.90;;;;;;5227952;28;20559;-52
2023/12/22 04:03:27;;;;;;;7.20;1.63;;;4.00;99.90;;;;;;5225135;28;20461;-52
2023/12/22 04:05:57;;;;;;;8.70;1.43;;;4.00;99.90;;;;;;5225480;28;20181;-49
2023/12/22 04:08:28;;;;;;;3.17;1.43;;;4.10;99.90;;;;;;5226660;28;20199;-50
2023/12/22 04:10:59;;;;;;;1.53;0.97;;;4.20;99.90;;;;;;5227563;28;20720;-51
2023/12/22 04:13:29;;;;;;;6.73;1.13;;;4.20;99.90;;;;;;5258168;22;21318;-51
2023/12/22 04:16:04;;;;;;;5.63;1.33;;;4.30;99.90;;;;;;5249961;28;20180;-51
2023/12/22 04:18:35;;;;;;;3.90;1.07;;;4.20;99.90;;;;;;5249010;28;20215;-50
2023/12/22 04:21:06;;;;;;;9.73;1.30;;;4.30;99.90;;;;;;5234872;28;20527;-51
2023/12/22 04:23:36;;;;;;;2.77;0.60;;;4.30;99.90;;;;;;5252974;28;20209;-51
2023/12/22 04:26:07;;;;;;;2.23;0.73;;;4.20;99.90;;;;;;5244367;28;20220;-50
2023/12/22 04:28:38;;;;;;;1.03;0.97;;;4.10;99.90;;;;;;5248175;28;21280;-50
2023/12/22 04:31:09;;;;;;;1.10;0.60;;;4.00;99.90;;;;;;5241758;28;20835;-50
2023/12/22 04:33:40;;;;;;;3.40;0.90;;;4.10;99.90;;;;;;5241002;28;20294;-50
2023/12/22 04:36:10;;;;;;;1.17;1.07;;;4.00;99.90;;;;;;5245214;28;20271;-50
2023/12/22 04:38:41;;;;;;;4.73;1.50;;;3.90;99.90;;;;;;5252195;28;20266;-51
2023/12/22 04:41:12;;;;;;;4.90;1.13;;;3.90;99.90;;;;;;5242013;28;20209;-51
2023/12/22 04:43:43;;;;;;;4.10;0.70;;;3.90;99.90;;;;;;5249997;28;20709;-53
2023/12/22 04:46:14;;;;;;;1.70;0.93;;;3.90;99.90;;;;;;5241364;28;20215;-51
2023/12/22 04:48:44;;;;;;;2.57;1.00;;;3.90;99.90;;;;;;5255724;28;20244;-50
2023/12/22 04:51:15;;;;;;;1.80;1.40;;;4.00;99.90;;;;;;5237536;28;20187;-52
2023/12/22 04:53:46;;;;;;;5.13;1.83;;;4.00;99.90;;;;;;5240758;28;20265;-51
2023/12/22 04:56:16;;;;;;;2.00;1.10;;;4.00;99.90;;;;;;5235811;28;20175;-51
2023/12/22 04:58:47;;;;;;;4.60;0.97;;;4.10;99.90;;;;;;5239733;28;20203;-50
2023/12/22 05:01:19;;;;;;;4.37;0.60;;;4.10;99.90;;;;;;5240957;28;20210;-52
2023/12/22 05:03:49;;;;;;;3.73;1.40;;;4.10;99.90;;;;;;5237881;28;20178;-52
2023/12/22 05:06:20;;;;;;;1.10;1.00;;;4.00;99.90;;;;;;5243968;28;20950;-51
2023/12/22 05:08:51;;;;;;;10.40;1.70;;;4.00;99.90;;;;;;5248955;28;20259;-53
2023/12/22 05:11:22;;;;;;;1.70;0.60;;;3.80;99.90;;;;;;5246269;28;20183;-50
2023/12/22 05:13:53;;;;;;;2.80;1.10;;;3.70;99.90;;;;;;5248534;28;20200;-51
2023/12/22 05:16:24;;;;;;;1.10;0.80;;;3.80;99.90;;;;;;5251890;28;20432;-50
2023/12/22 05:18:55;;;;;;;7.80;0.80;;;3.60;99.90;;;;;;5241520;28;20184;-52
2023/12/22 05:21:27;;;;;;;3.57;0.60;;;3.60;99.90;;;;;;5243556;28;20611;-51
2023/12/22 05:23:58;;;;;;;1.30;0.87;;;3.50;99.90;;;;;;5250168;28;20181;-52
2023/12/22 05:26:30;;;;;;;6.43;0.90;;;3.40;99.90;;;;;;5246772;28;20438;-51
2023/12/22 05:29:00;;;;;;;0.83;0.83;;;3.30;99.90;;;;;;5249607;28;20437;-51
2023/12/22 05:31:32;;;;;;;5.17;0.53;;;3.30;99.90;;;;;;5249265;28;20440;-51
2023/12/22 05:34:03;;;;;;;2.30;0.73;;;3.30;99.90;;;;;;5231962;28;20180;-50
2023/12/22 05:36:34;;;;;;;2.10;0.93;;;3.20;99.90;;;;;;5245934;28;20437;-51
2023/12/22 05:39:07;;;;;;;1.23;0.67;;;3.20;99.90;;;;;;5248855;28;20439;-51
2023/12/22 05:41:38;;;;;;;2.43;0.70;;;3.20;99.90;;;;;;5239221;28;20211;-51
2023/12/22 05:44:09;;;;;;;9.90;0.80;;;3.30;99.90;;;;;;5248321;28;20880;-53
2023/12/22 05:46:39;;;;;;;1.50;0.67;;;3.30;99.90;;;;;;5244599;28;20180;-51
2023/12/22 05:49:10;;;;;;;2.93;1.00;;;3.30;99.90;;;;;;5240591;28;20183;-51
2023/12/22 05:51:41;;;;;;;1.23;0.77;;;3.20;99.90;;;;;;5246839;28;20206;-51
2023/12/22 05:54:12;;;;;;;2.47;0.90;;;3.20;99.90;;;;;;5247586;28;20669;-51
2023/12/22 05:56:43;;;;;;;3.40;0.60;;;3.30;99.90;;;;;;5240110;28;20445;-51
2023/12/22 05:59:14;;;;;;;1.43;1.10;;;3.20;99.90;;;;;;5239074;28;20441;-51
2023/12/22 06:01:45;;;;;;;2.30;1.00;;;3.20;99.90;;;;;;5241578;28;20226;-51
2023/12/22 06:04:15;;;;;;;2.43;0.70;;;3.20;99.90;;;;;;5250766;28;20179;-51
2023/12/22 06:06:46;;;;;;;1.07;0.97;;;3.20;99.90;;;;;;5231434;28;20650;-51
2023/12/22 06:09:20;;;;;;;2.70;0.97;;;3.30;99.90;;;;;;5247073;28;20595;-51
2023/12/22 06:11:51;;;;;;;2.23;0.80;;;3.30;99.90;;;;;;5246659;28;20285;-51
2023/12/22 06:14:22;;;;;;;3.90;0.70;;;3.30;99.90;;;;;;5249511;28;20432;-52
2023/12/22 06:16:53;;;;;;;2.03;1.37;;;3.40;99.90;;;;;;5242667;28;20297;-51
2023/12/22 06:19:28;;;;;;;9.53;1.53;;;3.40;99.90;;;;;;5248788;28;20440;-53
2023/12/22 06:21:59;;;;;;;6.73;1.00;;;3.40;99.90;;;;;;5244627;28;20491;-51
2023/12/22 06:24:30;;;;;;;2.57;0.93;;;3.40;99.90;;;;;;5246519;28;20440;-52
2023/12/22 06:27:01;;;;;;;3.60;1.27;;;3.30;99.90;;;;;;5246580;28;20425;-52
2023/12/22 06:29:32;;;;;;;0.60;0.60;;;3.20;99.90;;;;;;5232521;28;20190;-51
2023/12/22 06:32:05;;;;;;;5.70;1.17;;;3.20;99.90;;;;;;5233422;28;20231;-51
2023/12/22 06:34:36;;;;;;;3.33;0.90;;;3.30;99.90;;;;;;5247796;28;20429;-50
2023/12/22 06:37:10;;;;;;;1.03;0.57;;;3.40;99.90;;;;;;5248434;28;20475;-51
2023/12/22 06:39:41;;;;;;;5.70;1.13;;;3.30;99.90;;;;;;5247746;28;20187;-50
2023/12/22 06:42:13;;;;;;;3.80;0.73;;;3.30;99.90;;;;;;5236698;28;20455;-51
2023/12/22 06:44:44;;;;;;;2.30;0.67;;;3.40;99.90;;;;;;5239399;28;20204;-51
2023/12/22 06:47:17;;;;;;;7.10;1.40;;;3.50;99.90;;;;;;5240728;28;20437;-50
2023/12/22 06:49:48;;;;;;;5.07;0.90;;;3.60;99.90;;;;;;5246247;28;20211;-54
2023/12/22 06:52:19;;;;;;;4.47;1.77;;;3.70;99.90;;;;;;5247249;28;20457;-51
2023/12/22 06:54:50;;;;;;;1.83;0.80;;;3.60;99.90;;;;;;5239292;28;20187;-50
2023/12/22 06:57:22;;;;;;;0.63;0.60;;;3.50;99.90;;;;;;5248432;28;20532;-52
2023/12/22 06:59:53;;;;;;;2.27;0.83;;;3.30;99.90;;;;;;5241474;28;20501;-51
2023/12/22 07:02:24;;;;;;;2.83;0.80;;;3.30;99.90;;;;;;5238373;28;20514;-50
2023/12/22 07:05:09;;;;;;;3.30;1.40;;;3.20;99.90;;;;;;5245837;28;20488;-49
2023/12/22 07:07:40;;;;;;;5.37;1.20;;;3.10;99.90;;;;;;5248950;28;20193;-49
2023/12/22 07:10:12;;;;;;;2.63;1.40;;;3.00;99.90;;;;;;5225750;28;20437;-50
2023/12/22 07:12:43;;;;;;;7.50;1.00;;;2.90;99.90;;;;;;5244783;28;20249;-50
2023/12/22 07:15:14;;;;;;;5.63;1.40;;;2.80;99.90;;;;;;5233769;28;20472;-51
2023/12/22 07:17:45;;;;;;;5.60;1.03;;;2.70;99.90;;;;;;5237311;28;20206;-51
2023/12/22 07:20:15;;;;;;;11.00;1.50;;;2.80;99.90;;;;;;5237358;28;20488;-50
2023/12/22 07:22:46;;;;;;;2.63;1.27;;;2.60;99.90;;;;;;5243804;28;20213;-50
2023/12/22 07:25:19;;;;;;;3.03;0.80;;;2.90;99.90;;;;;;5247826;28;20205;-50
2023/12/22 07:27:51;;;;;;;8.33;1.30;;;2.90;99.90;;;;;;5245503;28;20607;-53
2023/12/22 07:30:22;;;;;;;3.80;1.77;;;2.80;99.90;;;;;;5237133;28;20819;-52
2023/12/22 07:32:53;;;;;;;4.43;1.20;;;2.80;99.90;;;;;;5242493;28;20503;-50
2023/12/22 07:35:24;;;;;;;1.13;1.00;;;2.80;99.90;;;;;;5234721;28;20183;-52
2023/12/22 07:37:55;;;;;;;5.33;1.20;;;2.90;99.90;;;;;;5233574;28;20459;-49
2023/12/22 07:40:26;;;;;;;4.50;1.40;;;3.00;99.90;;;;;;5233606;28;20571;-51
2023/12/22 07:42:58;;;;;;;4.73;1.60;;;2.90;99.90;;;;;;5239175;28;20247;-51
2023/12/22 07:45:29;;;;;;;7.70;1.33;;;3.00;99.90;;;;;;5246108;28;20444;-51
2023/12/22 07:47:59;;;;;;;11.90;1.50;;;3.00;99.90;;;;;;5238696;28;20986;-50
2023/12/22 07:50:30;;;;;;;9.20;1.57;;;3.00;99.90;;;;;;5236643;28;20255;-50
2023/12/22 07:53:01;;;;;;;5.83;1.43;;;3.00;99.90;;;;;;5239914;28;20214;-51
2023/12/22 07:55:32;;;;;;;11.80;1.90;;;3.10;99.90;;;;;;5232815;28;20515;-51
2023/12/22 07:58:03;;;;;;;6.80;1.30;;;3.10;99.90;;;;;;5229673;28;20509;-51
2023/12/22 08:00:34;;;;;;;9.17;1.40;;;3.20;99.90;;;;;;5239676;28;20545;-52
2023/12/22 08:03:05;;;;;;;7.63;1.80;;;3.20;99.90;;;;;;5224785;28;20967;-52
2023/12/22 08:05:36;;;;;;;11.67;1.93;;;3.30;99.90;;;;;;5243434;28;20179;-51
2023/12/22 08:08:09;;;;;;;1.90;0.77;;;3.20;99.90;;;;;;5241223;28;20449;-53
2023/12/22 08:10:40;;;;;;;2.97;1.37;;;3.20;99.90;;;;;;5244597;28;20512;-53
2023/12/22 08:13:13;;;;;;;5.63;1.47;;;3.30;99.90;;;;;;5162802;28;2061630;-52
2023/12/22 08:15:44;;;;;;;3.67;1.13;;;3.30;99.90;;;;;;5226791;28;20190;-52
2023/12/22 08:18:17;;;;;;;5.47;1.77;;;3.30;99.90;;;;;;5236795;28;20970;-53
2023/12/22 08:20:49;;;;;;;2.90;1.17;;;3.20;99.90;;;;;;5232481;28;20209;-53
2023/12/22 08:23:26;;;;;;;2.63;1.07;;;3.20;99.90;;;;;;5226538;28;20457;-53
2023/12/22 08:25:58;;;;;;;7.57;1.13;;;3.20;99.90;;;;;;5243626;28;20441;-54
2023/12/22 08:28:29;;;;;;;4.47;1.27;;;3.20;99.90;;;;;;5225966;28;20517;-53
2023/12/22 08:31:05;;;;;;;2.93;0.97;;;3.20;99.90;;;;;;5239917;28;20440;-51
2023/12/22 08:33:36;;;;;;;1.90;1.00;;;3.20;99.90;;;;;;5246995;28;20539;-52
2023/12/22 08:36:07;;;;;;;2.93;1.07;;;3.30;99.90;;;;;;5234239;28;20505;-52
2023/12/22 08:38:40;;;;;;;6.73;1.20;;;3.20;99.90;;;;;;5246412;28;20561;-52
2023/12/22 08:41:11;;;;;;;16.80;1.67;;;3.20;99.90;;;;;;5235266;28;20206;-52
2023/12/22 08:43:42;;;;;;;0.60;0.50;;;3.20;99.90;;;;;;5245924;28;20482;-52
2023/12/22 08:46:14;;;;;;;4.27;1.40;;;3.30;99.90;;;;;;5233672;28;20436;-54
2023/12/22 08:48:44;;;;;;;3.90;1.37;;;3.30;99.90;;;;;;5244329;28;20441;-52
2023/12/22 08:51:15;;;;;;;9.50;1.27;;;3.40;99.90;;;;;;5239704;28;20874;-51
2023/12/22 08:53:46;;;;;;;6.17;1.47;;;3.40;99.90;;;;;;5222748;28;20195;-53
2023/12/22 08:56:18;;;;;;;10.67;1.20;;;3.30;99.90;;;;;;5216052;28;20197;-53
2023/12/22 08:58:51;;;;;;;8.23;1.70;;;3.30;99.90;;;;;;5231395;28;20435;-52
2023/12/22 09:01:22;;;;;;;3.73;1.30;;;3.30;99.90;;;;;;5232403;28;21002;-52
2023/12/22 09:03:53;;;;;;;11.20;1.57;;;3.30;99.90;;;;;;5245556;28;20460;-52
2023/12/22 09:06:24;;;;;;;5.93;1.53;;;3.30;99.90;;;;;;5245269;28;20472;-52
2023/12/22 09:08:55;;;;;;;10.23;1.70;;;3.30;99.90;;;;;;5222883;28;20738;-51
2023/12/22 09:11:26;;;;;;;5.00;1.80;;;3.30;99.90;;;;;;5218434;28;20445;-51
2023/12/22 09:13:57;;;;;;;10.50;1.70;;;3.40;99.90;;;;;;5227701;28;20214;-51
2023/12/22 09:16:28;;;;;;;5.17;1.80;;;3.50;99.90;;;;;;5246727;28;20174;-51
2023/12/22 09:18:59;;;;;;;18.33;2.63;;;3.60;99.90;;;;;;5231584;28;20435;-51
2023/12/22 09:21:30;;;;;;;8.23;1.13;;;3.70;99.90;;;;;;5217521;28;20465;-53
2023/12/22 09:24:01;;;;;;;5.27;1.93;;;3.80;99.90;;;;;;5233527;28;20433;-52
2023/12/22 09:26:33;;;;;;;7.03;1.30;;;3.80;99.90;;;;;;5214449;28;21245;-53
2023/12/22 09:29:04;;;;;;;14.07;2.37;;;3.90;99.90;;;;;;5229287;28;20960;-53
2023/12/22 09:31:35;;;;;;;9.50;2.60;;;3.90;99.90;;;;;;5223535;28;20459;-54
2023/12/22 09:34:06;;;;;;;1.47;1.13;;;3.90;99.90;;;;;;5224222;28;20460;-52
2023/12/22 09:36:37;;;;;;;12.43;2.00;;;4.00;99.90;;;;;;5244970;28;20218;-51
2023/12/22 09:39:08;;;;;;;5.40;2.27;;;4.10;99.90;;;;;;5227005;28;20805;-53
2023/12/22 09:41:42;;;;;;;10.13;2.13;;;4.20;99.90;;;;;;5228493;28;20211;-52
2023/12/22 09:44:16;;;;;;;6.83;2.20;;;4.20;99.90;;;;;;5230306;28;20957;-51
2023/12/22 09:46:52;;;;;;;8.67;2.40;;;4.20;99.90;;;;;;5231751;28;20511;-52
2023/12/22 09:49:23;;;;;;;7.83;1.97;;;4.30;99.90;;;;;;5243276;28;20431;-52
2023/12/22 09:51:56;;;;;;;5.43;2.30;;;4.30;99.90;;;;;;5229183;28;20541;-52
2023/12/22 09:54:28;;;;;;;8.87;1.70;;;4.30;99.90;;;;;;5230057;28;20446;-54
2023/12/22 09:57:00;;;;;;;7.20;2.17;;;4.40;99.90;;;;;;5246270;28;20430;-52
2023/12/22 09:59:33;;;;;;;5.63;2.30;;;4.40;99.90;;;;;;5221608;28;20438;-53
2023/12/22 10:02:06;;;;;;;6.17;1.57;;;4.40;99.90;;;;;;5228154;28;20474;-52
2023/12/22 10:04:37;;;;;;;5.30;1.63;;;4.40;99.90;;;;;;5244556;28;20429;-52
2023/12/22 10:07:09;;;;;;;13.77;2.93;;;4.50;99.90;;;;;;5228657;28;20434;-51
2023/12/22 10:09:41;;;;;;;6.10;1.93;;;4.40;99.90;;;;;;5237641;28;20952;-52
2023/12/22 10:12:12;;;;;;;8.77;2.50;;;4.50;99.90;;;;;;5242806;28;20478;-52
2023/12/22 10:14:44;;;;;;;6.23;2.87;;;4.60;99.90;;;;;;5226372;28;20431;-52
2023/12/22 10:17:16;;;;;;;9.77;2.50;;;4.70;99.90;;;;;;5227494;28;20984;-52
2023/12/22 10:19:47;;;;;;;9.83;1.87;;;4.70;99.90;;;;;;5231045;28;20457;-53
2023/12/22 10:22:18;;;;;;;13.07;2.53;;;4.70;99.90;;;;;;5224947;28;20494;-53
2023/12/22 10:24:52;;;;;;;12.03;2.70;;;4.70;99.90;;;;;;5238790;28;20521;-53
2023/12/22 10:27:23;;;;;;;9.97;2.37;;;4.70;99.90;;;;;;5225811;28;20443;-52
2023/12/22 10:29:56;;;;;;;24.17;2.97;;;4.80;99.90;;;;;;5230254;28;20442;-53
2023/12/22 10:32:27;;;;;;;7.03;2.67;;;4.80;99.90;;;;;;5238175;28;20441;-52
2023/12/22 10:34:58;;;;;;;9.53;2.70;;;4.80;99.90;;;;;;5209624;28;20785;-53
2023/12/22 10:37:29;;;;;;;20.77;5.43;;;4.70;99.90;;;;;;5229260;28;20458;-52
2023/12/22 10:40:23;;;;;;;12.13;1.87;;;4.70;99.90;;;;;;5226208;28;20935;-53
2023/12/22 10:42:58;;;;;;;10.97;3.43;;;4.70;99.90;;;;;;5223296;28;21060;-53
2023/12/22 10:45:30;;;;;;;6.13;2.50;;;4.80;99.90;;;;;;5206395;28;20440;-53
2023/12/22 10:48:02;;;;;;;10.77;2.70;;;4.90;99.90;;;;;;5207383;28;20443;-53
2023/12/22 10:50:32;;;;;;;19.23;3.97;;;4.80;99.90;;;;;;5221673;28;20437;-53
2023/12/22 10:53:07;;;;;;;13.87;2.80;;;4.90;99.90;;;;;;5220338;28;20477;-55
2023/12/22 10:55:37;;;;;;;15.50;2.83;;;4.90;99.90;;;;;;5203649;28;21469;-52
2023/12/22 10:58:09;;;;;;;11.77;2.27;;;5.00;99.90;;;;;;5207038;28;20439;-52
2023/12/22 11:00:44;;;;;;;13.43;2.60;;;4.80;99.90;;;;;;5201451;28;20206;-52
2023/12/22 11:03:21;;;;;;;7.83;2.10;;;4.80;99.90;;;;;;5224002;28;21351;-52
2023/12/22 11:05:54;;;;;;;10.47;2.30;;;4.80;99.90;;;;;;5191652;28;20440;-53
2023/12/22 11:08:28;;;;;;;5.33;1.63;;;4.90;99.90;;;;;;5201468;28;20884;-52
2023/12/22 11:11:03;;;;;;;13.77;2.37;;;4.90;99.90;;;;;;5226694;28;20878;-52
2023/12/22 11:13:34;;;;;;;23.67;3.33;;;4.80;99.90;;;;;;5206161;28;21006;-52
2023/12/22 11:16:06;;;;;;;6.33;2.03;;;4.80;99.90;;;;;;5222953;28;20453;-52
2023/12/22 11:18:38;;;;;;;6.43;2.33;;;4.80;99.90;;;;;;5203818;28;20470;-53
2023/12/22 11:21:11;;;;;;;16.80;4.80;;;4.80;99.90;;;;;;5218834;28;20468;-53
2023/12/22 11:23:44;;;;;;;8.03;2.97;;;4.70;99.90;;;;;;5206535;28;20546;-53
2023/12/22 11:26:20;;;;;;;10.90;2.57;;;4.80;99.90;;;;;;5207685;28;20965;-52
2023/12/22 11:28:52;;;;;;;8.50;3.00;;;4.90;99.90;;;;;;5209734;28;20845;-52
2023/12/22 11:31:25;;;;;;;8.20;2.47;;;4.90;99.90;;;;;;5207215;28;20569;-53
2023/12/22 11:34:01;;;;;;;4.97;1.87;;;4.90;99.90;;;;;;5217447;28;20523;-52
2023/12/22 11:36:33;;;;;;;3.70;1.67;;;4.90;99.90;;;;;;5204542;28;20466;-53
2023/12/22 11:39:04;;;;;;;21.57;2.83;;;4.90;99.90;;;;;;5223489;28;20435;-52
2023/12/22 11:41:37;;;;;;;4.83;1.63;;;4.90;99.90;;;;;;5219973;28;20456;-53
2023/12/22 11:44:09;;;;;;;7.70;1.90;;;4.90;99.90;;;;;;5204328;28;20457;-52
2023/12/22 11:46:40;;;;;;;10.50;2.20;;;5.00;99.90;;;;;;5208755;28;20447;-53
2023/12/22 11:49:12;;;;;;;6.57;1.63;;;4.90;99.90;;;;;;5224270;28;20416;-52
2023/12/22 11:51:43;;;;;;;5.93;2.30;;;5.00;99.90;;;;;;5210550;28;20820;-52
2023/12/22 11:54:50;;;;;;;10.17;2.23;;;4.90;99.90;;;;;;5221364;28;20444;-51
2023/12/22 11:57:28;;;;;;;8.13;2.07;;;4.90;99.90;;;;;;5207247;28;20515;-51
2023/12/22 12:00:21;;;;;;;8.73;2.10;;;4.80;99.90;;;;;;5205956;28;20512;-51
2023/12/22 12:02:55;;;;;;;10.50;1.90;;;4.80;99.90;;;;;;5217591;28;20513;-55
2023/12/22 12:05:27;;;;;;;7.40;2.23;;;4.90;99.90;;;;;;5210349;28;20428;-53
2023/12/22 12:08:07;;;;;;;11.40;2.80;;;4.80;99.90;;;;;;5208717;28;20434;-51
2023/12/22 12:10:53;;;;;;;8.37;2.10;;;4.80;99.90;;;;;;5204067;28;20452;-52
2023/12/22 12:13:25;;;;;;;14.43;1.67;;;4.80;99.90;;;;;;5220982;28;20478;-53
2023/12/22 12:16:01;;;;;;;8.10;1.90;;;4.90;99.90;;;;;;5210698;28;20466;-52
2023/12/22 12:18:33;;;;;;;12.73;1.93;;;5.00;99.90;;;;;;5208232;28;21059;-52
2023/12/22 12:21:07;;;;;;;9.37;2.10;;;4.90;99.90;;;;;;5226204;28;20487;-52
2023/12/22 12:23:41;;;;;;;10.40;2.73;;;5.00;99.90;;;;;;5206990;28;20482;-52
2023/12/22 12:26:12;;;;;;;8.73;1.83;;;5.00;99.90;;;;;;5210705;28;20463;-52
2023/12/22 12:28:46;;;;;;;9.43;3.53;;;5.00;99.90;;;;;;5219835;28;20472;-53
2023/12/22 12:31:16;;;;;;;9.23;3.50;;;4.90;99.90;;;;;;5226834;28;20428;-52
2023/12/22 12:33:49;;;;;;;10.13;2.63;;;4.90;99.90;;;;;;5211245;28;20527;-51
2023/12/22 12:36:19;;;;;;;8.10;1.90;;;4.90;99.90;;;;;;5208250;28;20280;-53
2023/12/22 12:38:55;;;;;;;7.20;1.87;;;4.80;99.90;;;;;;5217585;28;20518;-52
2023/12/22 12:41:31;;;;;;;4.40;1.53;;;4.80;99.90;;;;;;5208879;28;20279;-52
2023/12/22 12:44:07;;;;;;;11.90;2.27;;;4.90;99.90;;;;;;5205899;28;20434;-52
2023/12/22 12:46:39;;;;;;;8.30;2.60;;;5.00;99.90;;;;;;5224184;28;20440;-52
2023/12/22 12:49:12;;;;;;;10.57;2.40;;;5.00;99.90;;;;;;5223760;28;20460;-52
2023/12/22 12:51:47;;;;;;;6.10;1.80;;;5.00;99.90;;;;;;5222782;28;20474;-53
2023/12/22 12:54:18;;;;;;;7.10;2.00;;;5.00;99.90;;;;;;5206267;28;20466;-53
2023/12/22 12:56:49;;;;;;;12.60;1.93;;;4.90;99.90;;;;;;5205890;28;20520;-53
2023/12/22 12:59:20;;;;;;;17.47;3.40;;;4.90;99.90;;;;;;5216066;28;20444;-53
2023/12/22 13:01:52;;;;;;;6.43;1.83;;;4.90;99.90;;;;;;5221323;28;20929;-52
2023/12/22 13:04:23;;;;;;;11.77;2.90;;;4.90;99.90;;;;;;5223846;28;20186;-52
2023/12/22 13:06:54;;;;;;;7.37;1.70;;;5.00;99.90;;;;;;5206793;28;20470;-53
2023/12/22 13:09:33;;;;;;;13.33;2.67;;;5.00;99.90;;;;;;5222537;28;20773;-52
2023/12/22 13:12:05;;;;;;;12.37;2.30;;;5.00;99.90;;;;;;5207977;28;20479;-52
2023/12/22 13:14:36;;;;;;;5.03;1.53;;;5.00;99.90;;;;;;5206244;28;20451;-53
2023/12/22 13:17:07;;;;;;;11.63;1.80;;;5.00;99.90;;;;;;5207735;28;20436;-51